createdAt,value
2016-07-10T00:00:02.686Z,17.8
2016-07-10T00:15:02.696Z,17.8
2016-07-10T00:30:02.698Z,17.9
2016-07-10T00:45:07.346Z,18
2016-07-10T01:00:07.287Z,18
2016-07-10T01:15:13.056Z,17.9
2016-07-10T01:30:13.230Z,17.7
2016-07-10T01:45:07.339Z,17.6
2016-07-10T02:00:07.299Z,17.6
2016-07-10T02:15:07.295Z,17.5
2016-07-10T02:30:02.708Z,17.6
2016-07-10T02:45:07.383Z,17.6
2016-07-10T03:00:13.526Z,17.7
2016-07-10T03:15:07.654Z,17.8
2016-07-10T03:30:07.308Z,17.7
2016-07-10T03:45:07.356Z,17.7
2016-07-10T04:00:07.304Z,17.7
2016-07-10T04:15:07.307Z,17.8
2016-07-10T04:30:07.307Z,17.8
2016-07-10T04:45:17.295Z,17.8
2016-07-10T05:00:02.719Z,17.9
2016-07-10T05:15:06.829Z,18.1
2016-07-10T05:30:09.038Z,18.2
2016-07-10T05:45:08.938Z,18.5
2016-07-10T06:00:15.584Z,18.8
2016-07-10T06:15:07.670Z,18.8
2016-07-10T06:30:07.680Z,19.3
2016-07-10T06:45:17.468Z,19.7
2016-07-10T07:00:07.326Z,19.7
2016-07-10T07:15:07.412Z,20.2
2016-07-10T07:30:02.751Z,21.2
2016-07-10T07:45:02.762Z,22.2
2016-07-10T08:00:04.868Z,23.3
2016-07-10T08:15:04.777Z,24
2016-07-10T08:30:07.868Z,24.6
2016-07-10T08:45:02.796Z,25.2
2016-07-10T09:00:09.104Z,26
2016-07-10T09:15:06.565Z,26
2016-07-10T09:30:09.140Z,26.8
2016-07-10T09:45:04.903Z,27.4
2016-07-10T10:00:02.810Z,27.6
2016-07-10T10:15:07.429Z,27
2016-07-10T10:30:04.939Z,26.8
2016-07-10T10:45:06.971Z,27.4
2016-07-10T11:00:02.826Z,27.5
2016-07-10T11:15:02.835Z,26.2
2016-07-10T11:30:11.154Z,26.7
2016-07-10T11:45:05.798Z,26.5
2016-07-10T12:00:06.676Z,26.7
2016-07-10T12:15:04.946Z,26.9
2016-07-10T12:30:09.058Z,26.6
2016-07-10T12:45:02.861Z,26
2016-07-10T13:00:04.970Z,26.1
2016-07-10T13:15:02.907Z,26
2016-07-10T13:30:07.486Z,26.1
2016-07-10T13:45:02.893Z,26.4
2016-07-10T14:00:07.489Z,26.5
2016-07-10T14:15:05.039Z,26.6
2016-07-10T14:30:05.117Z,27.1
2016-07-10T14:45:02.902Z,27.6
2016-07-10T15:00:02.912Z,27.9
2016-07-10T15:15:04.954Z,28.1
2016-07-10T15:30:05.015Z,28.2
2016-07-10T15:45:05.047Z,28.1
2016-07-10T16:00:05.033Z,27.8
2016-07-10T16:15:04.968Z,27.4
2016-07-10T16:30:02.935Z,27.1
2016-07-10T16:45:02.946Z,26.9
2016-07-10T17:00:13.482Z,26.7
2016-07-10T17:15:05.105Z,26.6
2016-07-10T17:30:05.894Z,26.3
2016-07-10T17:45:15.592Z,26.1
2016-07-10T18:00:02.975Z,26
2016-07-10T18:15:02.973Z,25.8
2016-07-10T18:30:06.774Z,25.6
2016-07-10T18:45:08.022Z,25.5
2016-07-10T19:00:08.030Z,25.2
2016-07-10T19:15:07.204Z,25
2016-07-10T19:30:05.085Z,24.7
2016-07-10T19:45:05.959Z,24.1
2016-07-10T20:00:02.984Z,23.8
2016-07-10T20:15:02.993Z,23.6
2016-07-10T20:30:07.603Z,23.4
2016-07-10T20:45:07.637Z,23.4
2016-07-10T21:00:07.919Z,23.2
2016-07-10T21:15:17.421Z,23.1
2016-07-10T21:30:02.996Z,23
2016-07-10T21:45:02.996Z,22.9
2016-07-10T22:00:07.659Z,22.8
2016-07-10T22:15:07.588Z,22.7
2016-07-10T22:30:07.009Z,22.5
2016-07-10T22:45:07.600Z,22.3
2016-07-10T23:00:14.345Z,22.2
2016-07-10T23:15:07.599Z,22.1
2016-07-10T23:30:07.586Z,22
2016-07-10T23:45:09.216Z,22
